X  Fermer Données météorologiques d'aviation de Metar     EHKD De Kooy Airport
Température
14°C Température
12°C Point de rosée
88% Humidité



Vent
11 KM/H
7 MPH
3 M/S
6 KTS



10°
N
Conditions actuelles

Clair Clair
Pression 1015.92 (hPa) - 30 (inHg)
Visibilité 6 (mile) - 9.7 (km)
Aéroport
Code de l'aéroport EHKD

Emplacement: De Kooy Airport
Distance: 34 (km)

Metar:
EHKD 190025Z AUTO 01006KT 330V040 9999 NCD 14/12 Q1016 BLU

Temps: 19-06-2024 02:25 CEST